Time;durP1;ratioP1;P1;durP2;ratioP2;P2;SDS_P1;SDS_P2;PMS_P1;PMS_P2;Temp;Humidity;BMP_temperature;BMP_pressure;BME280_temperature;BME280_humidity;BME280_pressure;Samples;Min_cycle;Max_cycle;Signal;HPM_P1;HPM_P2
2021/06/06 00:00:31;;;;;;;20.42;18.23;;;;;;;21.36;41.89;101417.41;5046911;27;97048;-70
2021/06/06 00:02:59;;;;;;;20.80;18.67;;;;;;;21.28;42.22;101409.38;5048940;27;98400;-70
2021/06/06 00:05:31;;;;;;;21.02;18.85;;;;;;;21.27;42.35;101418.41;5045480;27;98928;-71
2021/06/06 00:07:59;;;;;;;21.88;19.45;;;;;;;21.25;42.00;101412.13;5045951;27;97124;-68
2021/06/06 00:10:27;;;;;;;21.90;19.60;;;;;;;21.24;41.86;101413.03;5044092;27;98287;-70
2021/06/06 00:12:54;;;;;;;22.25;20.05;;;;;;;21.13;42.28;101420.41;5030358;27;99730;-70
2021/06/06 00:15:21;;;;;;;23.50;21.00;;;;;;;21.10;42.38;101420.41;5045405;27;98888;-69
2021/06/06 00:17:50;;;;;;;21.83;19.65;;;;;;;21.08;42.31;101411.41;5046536;27;97074;-69
2021/06/06 00:20:17;;;;;;;21.83;19.48;;;;;;;21.11;42.27;101418.59;5047396;27;97542;-70
2021/06/06 00:22:45;;;;;;;22.00;19.75;;;;;;;21.09;42.27;101412.31;5044037;27;99718;-70
2021/06/06 00:25:13;;;;;;;21.70;19.55;;;;;;;21.10;42.06;101415.00;5027617;27;100392;-69
2021/06/06 00:27:41;;;;;;;22.27;19.95;;;;;;;21.12;42.33;101418.63;5046494;27;96876;-68
2021/06/06 00:30:10;;;;;;;22.35;20.05;;;;;;;21.13;42.08;101420.41;5046437;27;98172;-68
2021/06/06 00:32:38;;;;;;;21.00;18.83;;;;;;;21.14;42.42;101416.81;5041705;27;97928;-69
2021/06/06 00:35:09;;;;;;;22.60;20.17;;;;;;;21.18;41.97;101409.53;5028842;27;100325;-70
2021/06/06 00:37:37;;;;;;;22.60;20.25;;;;;;;21.17;41.93;101408.63;5042985;27;98087;-69
2021/06/06 00:40:07;;;;;;;22.58;20.17;;;;;;;21.16;42.23;101412.22;5045809;27;97465;-69
2021/06/06 00:42:37;;;;;;;23.75;21.10;;;;;;;21.16;42.11;101408.66;5046911;27;97875;-69
2021/06/06 00:45:07;;;;;;;22.17;20.02;;;;;;;21.14;42.19;101419.50;5045540;27;99915;-70
2021/06/06 00:47:35;;;;;;;23.45;20.92;;;;;;;21.12;42.25;101424.03;5043011;27;96924;-69
2021/06/06 00:50:07;;;;;;;24.98;22.33;;;;;;;21.13;42.41;101415.00;5025925;27;97741;-68
2021/06/06 00:52:39;;;;;;;25.40;22.35;;;;;;;21.12;42.38;101417.72;5046385;27;99079;-69
2021/06/06 00:55:09;;;;;;;26.83;21.00;;;;;;;21.12;42.26;101417.72;5047983;27;97303;-70
2021/06/06 00:57:39;;;;;;;25.48;21.38;;;;;;;21.06;42.58;101420.47;5042165;27;97192;-70
2021/06/06 01:00:12;;;;;;;23.63;21.25;;;;;;;21.03;42.54;101415.09;5029396;27;98008;-70
2021/06/06 01:02:45;;;;;;;23.13;20.77;;;;;;;21.01;42.60;101420.53;5046004;27;97922;-70
2021/06/06 01:05:16;;;;;;;23.92;21.42;;;;;;;20.98;42.35;101414.25;5046603;27;97706;-70
2021/06/06 01:07:45;;;;;;;24.52;20.65;;;;;;;20.98;42.40;101419.69;5048088;27;97529;-70
2021/06/06 01:10:14;;;;;;;22.58;20.23;;;;;;;20.94;42.34;101419.69;5046761;27;96981;-70
2021/06/06 01:12:45;;;;;;;24.23;20.70;;;;;;;20.89;42.45;101416.16;5021042;27;98970;-70
2021/06/06 01:15:18;;;;;;;24.83;20.83;;;;;;;20.85;42.52;101429.72;5029092;27;99127;-70
2021/06/06 01:17:52;;;;;;;23.58;20.60;;;;;;;20.76;42.68;101424.41;5020939;27;97424;-69
2021/06/06 01:20:34;;;;;;;24.55;20.50;;;;;;;20.65;42.74;101426.31;5026879;27;97201;-70
2021/06/06 01:23:21;;;;;;;23.83;20.83;;;;;;;20.64;43.14;101424.53;5026810;27;100922;-70
2021/06/06 01:25:51;;;;;;;21.70;19.42;;;;;;;20.62;42.92;101429.06;5027215;27;99170;-70
2021/06/06 01:28:21;;;;;;;21.98;19.67;;;;;;;20.59;42.58;101424.59;5045206;27;96953;-70
2021/06/06 01:30:56;;;;;;;21.20;18.80;;;;;;;20.55;42.83;101424.63;5028979;27;97278;-70
2021/06/06 01:33:26;;;;;;;20.77;18.60;;;;;;;20.49;42.81;101424.66;5028673;27;99373;-69
2021/06/06 01:35:57;;;;;;;21.33;18.80;;;;;;;20.50;42.85;101421.06;5028374;27;99175;-70
2021/06/06 01:38:28;;;;;;;20.25;18.05;;;;;;;20.43;43.19;101425.59;5043216;27;96956;-70
2021/06/06 01:40:59;;;;;;;21.58;18.20;;;;;;;20.41;42.87;101423.84;5029407;27;97237;-70
2021/06/06 01:43:31;;;;;;;21.40;17.65;;;;;;;20.34;43.15;101424.81;5045126;27;99365;-70
2021/06/06 01:46:07;;;;;;;21.17;18.90;;;;;;;20.33;42.95;101434.72;5026116;27;101246;-70
2021/06/06 01:48:37;;;;;;;20.10;18.00;;;;;;;20.32;43.03;101426.63;5044303;27;97224;-70
2021/06/06 01:51:07;;;;;;;20.42;18.25;;;;;;;20.32;42.78;101426.63;5035623;27;97512;-70
2021/06/06 01:53:36;;;;;;;22.35;19.80;;;;;;;20.36;42.71;101420.25;5028028;27;99412;-70
2021/06/06 01:56:06;;;;;;;27.52;19.55;;;;;;;20.38;43.03;101416.66;5043466;27;99306;-70
2021/06/06 01:58:41;;;;;;;21.73;19.42;;;;;;;20.42;42.93;101420.22;5029115;27;97358;-70
2021/06/06 02:01:14;;;;;;;22.38;19.10;;;;;;;20.44;42.54;101418.41;5042621;27;96927;-68
2021/06/06 02:03:42;;;;;;;21.45;19.33;;;;;;;20.46;43.03;101413.88;5027988;27;101149;-68
2021/06/06 02:06:22;;;;;;;21.48;19.17;;;;;;;20.47;42.76;101421.06;5044287;27;97649;-69
2021/06/06 02:08:53;;;;;;;22.77;20.38;;;;;;;20.46;43.01;101417.47;5028425;27;96909;-69
2021/06/06 02:11:31;;;;;;;21.38;19.20;;;;;;;20.48;42.60;101422.88;5027584;27;97144;-69
2021/06/06 02:14:03;;;;;;;21.23;19.00;;;;;;;20.42;42.84;101414.81;5045386;27;97535;-69
2021/06/06 02:16:40;;;;;;;22.98;20.50;;;;;;;20.43;42.85;101419.31;5027538;27;99232;-68
2021/06/06 02:19:21;;;;;;;24.17;21.55;;;;;;;20.44;43.06;101423.81;5027047;27;97757;-69
2021/06/06 02:22:04;;;;;;;22.73;20.38;;;;;;;20.45;42.83;101417.50;5022599;27;97247;-69
2021/06/06 02:24:36;;;;;;;24.02;21.35;;;;;;;20.46;42.82;101422.00;5044302;27;99521;-69
2021/06/06 02:27:13;;;;;;;25.98;21.55;;;;;;;20.46;42.92;101422.00;5013096;27;99313;-69
2021/06/06 02:29:47;;;;;;;26.60;22.80;;;;;;;20.50;43.04;101416.50;5043645;27;97252;-68
2021/06/06 02:32:18;;;;;;;26.55;23.65;;;;;;;20.50;42.95;101421.91;5028594;27;97280;-68
2021/06/06 02:34:54;;;;;;;28.45;23.45;;;;;;;20.51;42.86;101420.13;5024647;27;101117;-69
2021/06/06 02:37:27;;;;;;;25.38;22.75;;;;;;;20.56;42.63;101413.78;5044407;27;97764;-69
2021/06/06 02:39:58;;;;;;;25.85;23.05;;;;;;;20.56;42.35;101410.19;5025634;27;96978;-69
2021/06/06 02:42:31;;;;;;;26.17;22.33;;;;;;;20.55;42.49;101413.81;5027122;27;98603;-68
2021/06/06 02:45:01;;;;;;;26.42;23.27;;;;;;;20.54;42.87;101407.50;5044687;27;97747;-69
2021/06/06 02:47:33;;;;;;;25.40;22.30;;;;;;;20.53;42.80;101407.53;5043375;27;97706;-68
2021/06/06 02:50:13;;;;;;;27.15;24.10;;;;;;;20.53;42.93;101412.94;5025466;27;97799;-69
2021/06/06 02:52:44;;;;;;;27.40;24.08;;;;;;;20.54;42.46;101409.34;5019162;27;96919;-68
2021/06/06 02:55:27;;;;;;;24.92;22.17;;;;;;;20.43;42.98;101409.38;5041240;27;98948;-68
2021/06/06 02:58:04;;;;;;;26.92;23.60;;;;;;;20.39;43.03;101406.72;5026465;27;99149;-69
2021/06/06 03:00:38;;;;;;;27.23;23.85;;;;;;;20.40;42.78;101408.50;5027687;27;96899;-69
2021/06/06 03:03:11;;;;;;;28.00;24.02;;;;;;;20.43;42.62;101413.91;5026675;27;97158;-69
2021/06/06 03:05:39;;;;;;;30.95;25.98;;;;;;;20.42;42.91;101409.41;5024185;27;100515;-69
2021/06/06 03:08:13;;;;;;;28.85;24.20;;;;;;;20.43;42.66;101413.91;5044229;27;98154;-69
2021/06/06 03:10:44;;;;;;;29.67;26.23;;;;;;;20.41;43.11;101416.59;5027799;27;97105;-70
2021/06/06 03:13:15;;;;;;;31.63;26.52;;;;;;;20.42;42.86;101413.00;5026502;27;97695;-69
2021/06/06 03:15:46;;;;;;;31.95;27.17;;;;;;;20.45;42.72;101412.97;5023501;27;100594;-69
2021/06/06 03:18:17;;;;;;;31.73;27.75;;;;;;;20.47;42.58;101411.16;5016658;27;102086;-69
2021/06/06 03:20:47;;;;;;;33.05;27.67;;;;;;;20.45;43.00;101415.66;5024413;27;96926;-69
2021/06/06 03:23:20;;;;;;;31.83;26.85;;;;;;;20.40;43.06;101420.22;5024301;27;96922;-68
2021/06/06 03:25:51;;;;;;;34.63;29.25;;;;;;;20.42;42.58;101414.81;5041303;27;98976;-69
2021/06/06 03:28:27;;;;;;;40.00;31.20;;;;;;;20.41;43.04;101419.31;5026231;27;99717;-69
2021/06/06 03:30:57;;;;;;;46.55;35.30;;;;;;;20.38;42.73;101426.56;5025707;27;97052;-69
2021/06/06 03:33:45;;;;;;;35.70;29.83;;;;;;;20.42;42.72;101421.13;5044633;27;97000;-69
2021/06/06 03:36:20;;;;;;;35.03;29.50;;;;;;;20.43;42.85;101420.19;5021852;27;97995;-69
2021/06/06 03:38:48;;;;;;;34.38;29.25;;;;;;;20.42;42.72;101417.50;5043197;27;100436;-70
2021/06/06 03:41:18;;;;;;;35.58;29.05;;;;;;;20.42;42.72;101417.50;5028065;27;96924;-69
2021/06/06 03:43:51;;;;;;;33.53;27.98;;;;;;;20.39;42.95;101426.56;5026839;27;97522;-69
2021/06/06 03:46:19;;;;;;;35.92;29.70;;;;;;;20.41;42.49;101435.53;5026596;27;99302;-69
2021/06/06 03:48:49;;;;;;;34.63;28.52;;;;;;;20.36;42.75;101429.28;5042961;27;97865;-69
2021/06/06 03:51:18;;;;;;;34.20;29.35;;;;;;;20.37;42.62;101431.09;5044857;27;97087;-69
2021/06/06 03:53:45;;;;;;;35.28;29.13;;;;;;;20.40;42.83;101425.66;5041507;27;97900;-69
2021/06/06 03:56:13;;;;;;;54.42;39.83;;;;;;;20.39;42.69;101421.16;5024657;27;100496;-70
2021/06/06 03:58:42;;;;;;;134.00;85.30;;;;;;;20.40;42.77;101430.13;5043444;27;98772;-70
2021/06/06 04:01:12;;;;;;;43.92;34.03;;;;;;;20.38;42.51;101429.25;5037379;27;98240;-70
2021/06/06 04:03:39;;;;;;;35.55;29.02;;;;;;;20.38;42.85;101434.66;5020021;27;97103;-69
2021/06/06 04:06:08;;;;;;;35.03;28.45;;;;;;;20.44;42.29;101440.94;5016537;27;100083;-69
2021/06/06 04:08:40;;;;;;;32.80;28.05;;;;;;;20.48;42.65;101430.97;5023602;27;99293;-70
2021/06/06 04:11:13;;;;;;;33.70;28.45;;;;;;;20.48;42.75;101434.59;5042114;27;97256;-69
2021/06/06 04:13:51;;;;;;;35.22;30.70;;;;;;;20.49;42.72;101436.38;5045122;27;97764;-69
2021/06/06 04:16:20;;;;;;;33.88;28.95;;;;;;;20.48;42.81;101439.09;5022169;27;99698;-69
2021/06/06 04:18:49;;;;;;;39.60;32.20;;;;;;;20.49;42.54;101436.38;5029123;27;102003;-69
2021/06/06 04:21:19;;;;;;;36.70;30.20;;;;;;;20.49;42.65;101430.06;5047275;27;97580;-70
2021/06/06 04:23:47;;;;;;;36.92;29.10;;;;;;;20.51;42.68;101439.97;5031352;27;97820;-70
2021/06/06 04:26:15;;;;;;;32.17;27.98;;;;;;;20.48;42.38;101440.00;5029347;27;100475;-68
2021/06/06 04:28:46;;;;;;;31.50;27.67;;;;;;;20.51;42.66;101447.16;5045113;27;98940;-70
2021/06/06 04:31:21;;;;;;;30.50;27.08;;;;;;;20.48;42.50;101447.22;5048064;27;98087;-70
2021/06/06 04:33:50;;;;;;;33.53;27.58;;;;;;;20.45;42.76;101447.25;5044959;27;96895;-69
2021/06/06 04:36:19;;;;;;;34.25;27.65;;;;;;;20.45;42.68;101456.22;5029990;27;99651;-70
2021/06/06 04:38:48;;;;;;;33.03;27.55;;;;;;;20.47;42.25;101450.81;5029202;27;97962;-70
2021/06/06 04:41:16;;;;;;;67.22;50.30;;;;;;;20.45;42.15;101450.81;5047473;27;97124;-70
2021/06/06 04:43:44;;;;;;;39.22;31.35;;;;;;;20.45;42.23;101452.66;5029396;27;97442;-70
2021/06/06 04:46:14;;;;;;;36.38;28.40;;;;;;;20.42;42.32;101455.38;5046050;27;97828;-70
2021/06/06 04:48:46;;;;;;;32.67;27.67;;;;;;;20.41;42.40;101443.66;5023940;27;99793;-70
2021/06/06 04:51:18;;;;;;;32.70;26.98;;;;;;;20.44;42.17;101442.72;5046414;27;98017;-70
2021/06/06 04:53:54;;;;;;;35.92;27.77;;;;;;;20.43;42.57;101443.66;5030256;27;97958;-70
2021/06/06 04:56:26;;;;;;;32.38;26.75;;;;;;;20.42;42.49;101444.53;5017524;27;97861;-69
2021/06/06 04:58:55;;;;;;;30.27;27.00;;;;;;;20.45;42.54;101449.94;5028958;27;102789;-70
2021/06/06 05:01:22;;;;;;;33.67;28.05;;;;;;;20.45;42.60;101448.13;5029276;27;98154;-70
2021/06/06 05:03:53;;;;;;;36.75;30.30;;;;;;;20.44;42.53;101451.75;5047135;27;97241;-70
2021/06/06 05:06:22;;;;;;;66.80;49.47;;;;;;;20.45;42.26;101449.94;5028127;27;100640;-69
2021/06/06 05:08:53;;;;;;;38.50;30.98;;;;;;;20.42;42.43;101456.28;5029309;27;100826;-68
2021/06/06 05:11:22;;;;;;;32.83;27.67;;;;;;;20.44;42.32;101448.13;5029008;27;97085;-68
2021/06/06 05:13:52;;;;;;;32.22;27.40;;;;;;;20.46;42.34;101458.03;5028659;27;96937;-69
2021/06/06 05:16:19;;;;;;;32.25;26.45;;;;;;;20.46;42.48;101449.03;5045410;27;98884;-69
2021/06/06 05:18:48;;;;;;;35.95;28.63;;;;;;;20.47;41.98;101448.09;5016442;27;99115;-67
2021/06/06 05:21:16;;;;;;;34.30;27.80;;;;;;;20.44;42.22;101453.53;5026852;27;97620;-68
2021/06/06 05:23:45;;;;;;;35.92;27.27;;;;;;;20.44;42.47;101453.53;5043384;27;97020;-68
2021/06/06 05:26:16;;;;;;;34.40;28.25;;;;;;;20.44;42.48;101458.94;5015328;27;98645;-67
2021/06/06 05:28:45;;;;;;;38.25;28.80;;;;;;;20.45;42.10;101445.41;5046290;27;98438;-69
2021/06/06 05:31:14;;;;;;;34.95;28.25;;;;;;;20.48;42.12;101455.31;5045057;27;97355;-68
2021/06/06 05:33:43;;;;;;;35.33;27.33;;;;;;;20.47;42.40;101458.91;5047158;27;97415;-68
2021/06/06 05:36:11;;;;;;;35.65;28.70;;;;;;;20.44;42.50;101453.53;5043814;27;98946;-68
2021/06/06 05:38:39;;;;;;;36.60;29.17;;;;;;;20.43;42.54;101454.47;5046716;27;98827;-69
2021/06/06 05:41:07;;;;;;;33.63;27.73;;;;;;;20.43;42.50;101462.59;5045235;27;97622;-69
2021/06/06 05:43:37;;;;;;;34.88;28.10;;;;;;;20.40;42.26;101460.78;5045143;27;97532;-69
2021/06/06 05:46:04;;;;;;;89.75;68.18;;;;;;;20.42;42.30;101468.88;5046229;27;98849;-67
2021/06/06 05:48:32;;;;;;;40.97;35.38;;;;;;;20.43;42.06;101471.56;5028355;27;100830;-68
2021/06/06 05:51:02;;;;;;;36.75;31.05;;;;;;;20.43;42.52;101471.56;5045025;27;97522;-68
2021/06/06 05:53:56;;;;;;;33.90;28.50;;;;;;;20.43;42.54;101470.69;5018154;27;97341;-68
2021/06/06 05:56:24;;;;;;;42.15;35.80;;;;;;;20.45;42.30;101472.44;5037975;27;98515;-68
2021/06/06 05:58:53;;;;;;;33.30;28.35;;;;;;;20.44;42.01;101470.66;5045968;27;100465;-68
2021/06/06 06:01:21;;;;;;;35.13;28.80;;;;;;;20.44;42.48;101480.59;5045270;27;96922;-68
2021/06/06 06:03:49;;;;;;;35.92;30.33;;;;;;;20.42;42.46;101475.19;5047718;27;96864;-68
2021/06/06 06:06:16;;;;;;;36.65;30.70;;;;;;;20.46;41.96;101478.78;5044761;27;97798;-67
2021/06/06 06:08:45;;;;;;;34.28;28.38;;;;;;;20.49;41.93;101481.44;5019871;27;99331;-68
2021/06/06 06:11:17;;;;;;;33.97;28.65;;;;;;;20.49;41.93;101481.44;5043663;27;96965;-68
2021/06/06 06:13:45;;;;;;;33.28;29.20;;;;;;;20.50;41.82;101485.94;5027464;27;97287;-68
2021/06/06 06:16:25;;;;;;;34.05;28.65;;;;;;;20.44;42.34;101486.00;5015287;27;100713;-68
2021/06/06 06:18:53;;;;;;;33.20;27.88;;;;;;;20.47;42.08;101496.78;5043345;27;97684;-67
2021/06/06 06:21:22;;;;;;;39.20;32.85;;;;;;;20.45;41.88;101493.22;5046751;27;97471;-69
2021/06/06 06:23:49;;;;;;;33.88;28.85;;;;;;;20.45;41.88;101495.91;5038303;27;97117;-69
2021/06/06 06:26:18;;;;;;;36.40;29.48;;;;;;;20.48;42.11;101499.50;5039471;27;99629;-68
2021/06/06 06:29:09;;;;;;;33.63;29.85;;;;;;;20.48;41.87;101498.59;5044417;27;101273;-68
2021/06/06 06:31:59;;;;;;;36.08;28.65;;;;;;;20.50;41.79;101500.34;5036280;27;98752;-68
2021/06/06 06:34:33;;;;;;;64.47;47.95;;;;;;;20.53;42.15;101499.47;5057474;27;96956;-69
2021/06/06 06:37:01;;;;;;;43.00;33.72;;;;;;;20.53;41.94;101496.75;5026927;27;98996;-69
2021/06/06 06:39:29;;;;;;;52.85;42.45;;;;;;;20.51;41.98;101502.16;5041811;27;97840;-68
2021/06/06 06:41:57;;;;;;;61.78;49.35;;;;;;;20.47;42.24;101508.50;5043139;27;97973;-69
2021/06/06 06:44:24;;;;;;;39.00;33.17;;;;;;;20.48;41.85;101504.91;5044369;27;96909;-67
2021/06/06 06:46:54;;;;;;;38.08;32.35;;;;;;;20.50;41.86;101507.59;5026636;27;99291;-69
2021/06/06 06:49:22;;;;;;;38.58;31.23;;;;;;;20.52;41.77;101500.34;5039399;27;97608;-68
2021/06/06 06:51:49;;;;;;;38.25;32.35;;;;;;;20.52;42.19;101505.75;5043733;27;97698;-69
2021/06/06 06:54:17;;;;;;;35.35;30.95;;;;;;;20.53;41.81;101502.16;5045643;27;97047;-69
2021/06/06 06:56:44;;;;;;;34.58;29.88;;;;;;;20.52;42.03;101509.38;5042829;27;97867;-68
2021/06/06 06:59:13;;;;;;;37.03;28.85;;;;;;;20.52;42.23;101513.88;5043658;27;97676;-69
2021/06/06 07:01:40;;;;;;;44.70;35.75;;;;;;;20.48;42.14;101515.72;5043055;27;97313;-69
2021/06/06 07:04:07;;;;;;;39.42;33.00;;;;;;;20.47;42.12;101524.72;5040106;27;96927;-69
2021/06/06 07:06:35;;;;;;;35.97;29.38;;;;;;;20.46;41.74;101516.63;5027134;27;99343;-68
2021/06/06 07:09:02;;;;;;;36.08;29.58;;;;;;;20.45;41.99;101531.06;5046391;27;98347;-69
2021/06/06 07:11:30;;;;;;;34.75;29.77;;;;;;;20.44;41.78;101529.25;5046684;27;96754;-69
2021/06/06 07:13:57;;;;;;;36.63;30.45;;;;;;;20.45;41.85;101533.78;5045785;27;98013;-68
2021/06/06 07:16:26;;;;;;;33.05;29.45;;;;;;;20.45;41.73;101525.66;5042147;27;97773;-68
2021/06/06 07:18:53;;;;;;;34.70;28.40;;;;;;;20.41;42.09;101535.56;5039992;27;98385;-67
2021/06/06 07:21:22;;;;;;;31.15;27.08;;;;;;;20.41;41.81;101545.50;5039051;27;98131;-68
2021/06/06 07:23:50;;;;;;;30.38;25.70;;;;;;;20.42;41.95;101544.59;5042896;27;97124;-68
2021/06/06 07:26:20;;;;;;;27.25;23.75;;;;;;;20.41;41.58;101545.50;5039310;27;100747;-68
2021/06/06 07:28:47;;;;;;;26.33;23.30;;;;;;;20.41;41.66;101551.78;5041445;27;99192;-68
2021/06/06 07:31:15;;;;;;;24.45;21.85;;;;;;;20.40;41.30;101549.09;5027497;27;96898;-67
2021/06/06 07:33:45;;;;;;;28.45;23.20;;;;;;;20.41;41.74;101551.78;5043093;27;97864;-68
2021/06/06 07:36:15;;;;;;;28.33;23.08;;;;;;;20.41;41.86;101561.72;5042475;27;99292;-67
2021/06/06 07:38:43;;;;;;;29.42;23.33;;;;;;;20.39;41.73;101559.03;5042916;27;97566;-67
2021/06/06 07:41:11;;;;;;;26.13;23.23;;;;;;;20.39;41.49;101564.47;5043522;27;98188;-68
2021/06/06 07:43:38;;;;;;;25.45;22.75;;;;;;;20.39;41.21;101558.13;5042418;27;97702;-68
2021/06/06 07:46:05;;;;;;;25.20;22.58;;;;;;;20.40;41.47;101552.72;5042722;27;99309;-68
2021/06/06 07:48:33;;;;;;;24.90;22.27;;;;;;;20.47;41.70;101556.25;5046578;27;99724;-68
2021/06/06 07:51:04;;;;;;;27.08;22.98;;;;;;;20.56;40.85;101545.41;5045162;27;97388;-67
2021/06/06 07:53:31;;;;;;;29.05;24.05;;;;;;;20.52;40.97;101546.34;5046574;27;97349;-68
2021/06/06 07:55:58;;;;;;;29.58;22.58;;;;;;;20.52;40.89;101549.03;5044783;27;100487;-69
2021/06/06 07:58:29;;;;;;;25.23;22.08;;;;;;;20.52;41.19;101549.03;5045316;27;99201;-68
2021/06/06 08:00:56;;;;;;;24.85;21.45;;;;;;;20.53;41.27;101545.44;5047923;27;96816;-67
2021/06/06 08:03:27;;;;;;;23.65;21.20;;;;;;;20.53;41.14;101549.06;5048219;27;96868;-67
2021/06/06 08:05:54;;;;;;;32.83;28.25;;;;;;;20.54;41.04;101550.81;5044616;27;100435;-68
2021/06/06 08:08:23;;;;;;;38.60;30.10;;;;;;;20.53;41.07;101549.06;5028019;27;99756;-70
2021/06/06 08:10:53;;;;;;;29.30;24.38;;;;;;;20.57;41.07;101550.81;5046898;27;98050;-68
2021/06/06 08:13:21;;;;;;;29.17;25.55;;;;;;;20.64;40.62;101552.56;5029654;27;97070;-68
2021/06/06 08:15:48;;;;;;;25.90;23.05;;;;;;;20.71;40.69;101550.69;5044563;27;97716;-67
2021/06/06 08:18:19;;;;;;;29.80;24.73;;;;;;;20.74;40.80;101546.16;5045360;27;100447;-67
2021/06/06 08:20:50;;;;;;;30.83;27.45;;;;;;;20.78;40.66;101549.72;5048003;27;97130;-66
2021/06/06 08:23:18;;;;;;;35.75;30.67;;;;;;;20.82;40.40;101554.22;5027314;27;96994;-67
2021/06/06 08:25:46;;;;;;;54.20;42.78;;;;;;;20.88;40.56;101552.38;5046838;27;98652;-67
2021/06/06 08:28:14;;;;;;;38.55;32.42;;;;;;;20.92;40.25;101555.94;5045858;27;97835;-66
2021/06/06 08:30:43;;;;;;;33.72;26.45;;;;;;;20.95;40.14;101556.81;5046389;27;97323;-68
2021/06/06 08:33:12;;;;;;;31.23;25.77;;;;;;;20.96;40.63;101546.84;5045163;27;97213;-68
2021/06/06 08:35:56;;;;;;;33.08;27.67;;;;;;;20.98;40.59;101554.97;5027076;27;100571;-68
2021/06/06 08:38:24;;;;;;;38.40;29.73;;;;;;;21.01;40.53;101554.94;5046270;27;98277;-68
2021/06/06 08:40:59;;;;;;;35.00;28.60;;;;;;;21.06;40.59;101559.41;5045968;27;97160;-67
2021/06/06 08:43:35;;;;;;;31.45;27.35;;;;;;;21.07;40.26;101550.34;5045672;27;97685;-67
2021/06/06 08:46:03;;;;;;;34.85;26.98;;;;;;;21.11;40.38;101554.84;5045550;27;100777;-68
2021/06/06 08:48:30;;;;;;;33.20;26.92;;;;;;;21.10;40.20;101550.34;5041790;27;99204;-67
2021/06/06 08:51:03;;;;;;;31.95;27.75;;;;;;;21.10;40.26;101547.63;5045923;27;97525;-68
2021/06/06 08:53:34;;;;;;;30.27;25.58;;;;;;;21.12;40.29;101559.38;5046830;27;97458;-67
2021/06/06 08:56:17;;;;;;;30.75;24.30;;;;;;;21.17;40.62;101552.09;5044927;27;97579;-67
2021/06/06 08:58:48;;;;;;;33.67;27.75;;;;;;;21.17;40.48;101557.53;5044992;27;100446;-68
2021/06/06 09:01:32;;;;;;;37.72;29.98;;;;;;;21.23;40.58;101554.75;5047564;27;96933;-68
2021/06/06 09:04:02;;;;;;;35.75;30.00;;;;;;;21.27;40.00;101551.06;5020744;27;98090;-68
2021/06/06 09:06:37;;;;;;;32.63;26.45;;;;;;;21.33;40.41;101558.22;5044184;27;98817;-68
2021/06/06 09:09:06;;;;;;;30.27;25.83;;;;;;;21.32;40.24;101556.47;5044446;27;99018;-68
2021/06/06 09:11:35;;;;;;;33.08;26.67;;;;;;;21.41;40.04;101562.69;5048756;27;97609;-68
2021/06/06 09:14:03;;;;;;;27.48;23.58;;;;;;;21.43;40.03;101560.84;5047928;27;97214;-68
2021/06/06 09:16:33;;;;;;;30.10;25.25;;;;;;;21.50;40.00;101561.66;5064431;27;97691;-68
2021/06/06 09:19:06;;;;;;;28.40;24.83;;;;;;;21.49;39.81;101568.88;5026356;27;100500;-67
2021/06/06 09:21:34;;;;;;;27.23;23.73;;;;;;;21.52;40.00;101560.75;5040229;27;98533;-68
2021/06/06 09:24:07;;;;;;;30.58;25.00;;;;;;;21.59;40.07;101567.88;5047574;27;97341;-68
2021/06/06 09:26:36;;;;;;;25.20;21.58;;;;;;;21.66;39.57;101558.75;5043708;27;99013;-68
2021/06/06 09:29:09;;;;;;;33.17;27.30;;;;;;;21.71;39.77;101559.63;5047912;27;99646;-68
2021/06/06 09:31:37;;;;;;;67.28;54.20;;;;;;;21.87;39.62;101563.91;5046158;27;96937;-68
2021/06/06 09:34:07;;;;;;;43.45;35.40;;;;;;;21.90;39.39;101566.63;5050234;27;97263;-67
2021/06/06 09:36:39;;;;;;;30.73;27.42;;;;;;;21.93;39.30;101566.56;5045882;27;99498;-68
2021/06/06 09:39:11;;;;;;;30.20;25.38;;;;;;;21.96;39.42;101567.44;5048276;27;98990;-68
2021/06/06 09:41:44;;;;;;;29.85;24.08;;;;;;;21.96;39.49;101570.16;5033596;27;97218;-68
2021/06/06 09:44:20;;;;;;;29.58;25.58;;;;;;;22.01;39.40;101565.56;5048571;27;97672;-68
2021/06/06 09:46:50;;;;;;;28.27;23.13;;;;;;;22.01;39.20;101574.59;5041154;27;98903;-71
2021/06/06 09:49:28;;;;;;;29.23;24.63;;;;;;;22.03;39.29;101564.63;5047371;27;99530;-74
2021/06/06 09:51:58;;;;;;;32.25;26.95;;;;;;;22.02;39.41;101561.94;5044195;27;96966;-77
2021/06/06 09:54:30;;;;;;;32.15;27.00;;;;;;;22.00;39.39;101569.19;5047497;27;98980;-77
2021/06/06 09:57:02;;;;;;;34.72;28.27;;;;;;;21.92;39.54;101567.50;5049855;27;97633;-77
2021/06/06 09:59:32;;;;;;;33.85;27.63;;;;;;;21.83;39.66;101567.63;5038023;27;97655;-76
2021/06/06 10:02:03;;;;;;;36.85;29.73;;;;;;;21.81;39.76;101566.72;5049606;27;97487;-76
2021/06/06 10:04:32;;;;;;;37.40;28.35;;;;;;;21.74;39.83;101567.69;5052524;27;96950;-76
2021/06/06 10:07:11;;;;;;;34.53;27.60;;;;;;;21.71;39.70;101566.84;5031579;27;99538;-74
2021/06/06 10:09:40;;;;;;;36.17;29.67;;;;;;;21.68;39.79;101572.28;5034816;27;99916;-74
2021/06/06 10:12:12;;;;;;;37.08;28.38;;;;;;;21.63;39.94;101579.56;5046562;27;96931;-75
2021/06/06 10:14:43;;;;;;;39.65;29.60;;;;;;;21.54;40.16;101575.13;5050103;27;96920;-76
2021/06/06 10:17:12;;;;;;;38.55;29.05;;;;;;;21.50;40.47;101569.78;5073140;22;97295;-71
2021/06/06 10:19:43;;;;;;;38.22;29.33;;;;;;;21.45;40.55;101575.25;4996868;28;100450;-71
2021/06/06 10:22:16;;;;;;;36.85;29.67;;;;;;;21.45;40.28;101580.66;4998325;28;96837;-71
2021/06/06 10:24:47;;;;;;;38.65;28.33;;;;;;;21.50;40.51;101586.03;4998555;28;97388;-71
2021/06/06 10:27:19;;;;;;;37.85;28.77;;;;;;;21.54;40.50;101575.13;4998875;28;101375;-71
2021/06/06 10:29:50;;;;;;;36.70;29.55;;;;;;;21.55;40.33;101581.47;4999405;28;99300;-73
2021/06/06 10:32:24;;;;;;;46.90;34.30;;;;;;;21.58;40.14;101582.31;5000771;28;97471;-70
2021/06/06 10:34:55;;;;;;;36.75;28.63;;;;;;;21.58;40.39;101587.72;4990710;28;98739;-69
2021/06/06 10:37:22;;;;;;;39.50;30.42;;;;;;;21.62;40.13;101592.22;4996148;28;99612;-68
2021/06/06 10:39:55;;;;;;;36.75;28.92;;;;;;;21.66;39.81;101577.72;4997406;28;97473;-69
2021/06/06 10:42:28;;;;;;;34.92;28.05;;;;;;;21.67;39.75;101590.34;5001211;28;97799;-69
2021/06/06 10:45:05;;;;;;;35.78;27.50;;;;;;;21.71;40.21;101592.13;4988498;28;98937;-69
2021/06/06 10:47:40;;;;;;;38.28;28.23;;;;;;;21.68;39.75;101585.81;4996546;28;97845;-70
2021/06/06 10:50:16;;;;;;;33.17;28.45;;;;;;;21.68;40.08;101589.44;5010015;27;99650;-69
2021/06/06 10:52:44;;;;;;;40.88;34.08;;;;;;;21.72;39.86;101593.94;4995308;28;97781;-70
2021/06/06 10:55:18;;;;;;;36.33;28.90;;;;;;;21.74;39.66;101585.78;4991236;28;101709;-71
2021/06/06 10:57:48;;;;;;;36.47;27.23;;;;;;;21.71;39.70;101583.09;4991540;28;97679;-70
2021/06/06 11:00:24;;;;;;;34.22;26.80;;;;;;;21.72;39.88;101585.81;4989516;28;98882;-70
2021/06/06 11:02:55;;;;;;;32.10;25.48;;;;;;;21.70;39.83;101593.06;4998857;28;96892;-70
2021/06/06 11:05:44;;;;;;;31.33;25.77;;;;;;;21.65;39.74;101591.28;4995150;28;97620;-70
2021/06/06 11:08:37;;;;;;;33.95;25.77;;;;;;;21.66;39.78;101588.56;4977727;28;99762;-69
2021/06/06 11:11:21;;;;;;;36.70;26.58;;;;;;;21.73;40.12;101587.59;5007453;27;97322;-69
2021/06/06 11:13:52;;;;;;;33.58;25.92;;;;;;;21.74;39.69;101588.50;4997946;28;97978;-69
2021/06/06 11:16:24;;;;;;;33.78;26.73;;;;;;;21.80;39.46;101593.81;4993663;28;96844;-69
2021/06/06 11:18:55;;;;;;;24.83;21.13;;;;;;;21.83;39.65;101583.88;4998325;28;99731;-70
2021/06/06 11:21:34;;;;;;;30.88;24.60;;;;;;;21.86;39.45;101586.53;4977619;28;100539;-70
2021/06/06 11:24:06;;;;;;;32.22;25.52;;;;;;;21.83;39.82;101585.69;5002958;28;97241;-69
2021/06/06 11:26:42;;;;;;;75.60;60.40;;;;;;;21.78;39.88;101590.25;5006693;28;97486;-69